Time;durP1;ratioP1;P1;durP2;ratioP2;P2;SDS_P1;SDS_P2;PMS_P1;PMS_P2;Temp;Humidity;BMP_temperature;BMP_pressure;BME280_temperature;BME280_humidity;BME280_pressure;Samples;Min_cycle;Max_cycle;Signal;HPM_P1;HPM_P2
2022/04/12 00:00:34;;;;;;;9.13;6.30;;;10.70;99.90;;;;;;5067907;28;37296;-77
2022/04/12 00:03:00;;;;;;;8.32;6.07;;;10.70;99.90;;;;;;5051677;28;39143;-77
2022/04/12 00:05:26;;;;;;;9.07;6.30;;;10.60;99.90;;;;;;5066119;28;46599;-77
2022/04/12 00:07:52;;;;;;;10.10;6.03;;;10.50;99.90;;;;;;5053546;28;37971;-78
2022/04/12 00:10:19;;;;;;;9.93;6.47;;;10.50;99.90;;;;;;5047783;28;37820;-78
2022/04/12 00:12:46;;;;;;;10.80;6.17;;;10.50;99.90;;;;;;5068166;27;40105;-77
2022/04/12 00:15:12;;;;;;;10.97;6.13;;;10.40;99.90;;;;;;5064602;28;38455;-78
2022/04/12 00:20:28;;;;;;;11.73;6.10;;;10.30;99.90;;;;;;5072159;28;38486;-77
2022/04/12 00:22:55;;;;;;;8.23;5.72;;;10.20;99.90;;;;;;5069019;28;38057;-78
2022/04/12 00:25:22;;;;;;;13.40;6.47;;;10.10;99.90;;;;;;5065306;28;37524;-77
2022/04/12 00:27:50;;;;;;;10.23;6.47;;;10.10;99.90;;;;;;5078763;28;36991;-77
2022/04/12 00:30:16;;;;;;;9.73;5.73;;;10.00;99.90;;;;;;5063787;28;36103;-78
2022/04/12 00:32:43;;;;;;;9.40;6.10;;;10.00;99.90;;;;;;5068424;28;39126;-76
2022/04/12 00:35:09;;;;;;;9.90;6.15;;;9.90;99.90;;;;;;5060468;28;38508;-77
2022/04/12 00:37:37;;;;;;;9.30;5.90;;;9.90;99.90;;;;;;5062414;28;35494;-77
2022/04/12 00:40:05;;;;;;;9.03;6.77;;;9.90;99.90;;;;;;5068480;28;36937;-77
2022/04/12 00:42:31;;;;;;;9.20;6.53;;;9.90;99.90;;;;;;5063012;28;38586;-77
2022/04/12 00:44:58;;;;;;;9.37;5.83;;;9.80;99.90;;;;;;5071306;28;39089;-77
2022/04/12 00:47:25;;;;;;;9.00;6.23;;;9.70;99.90;;;;;;5069412;28;38541;-77
2022/04/12 00:49:51;;;;;;;7.67;6.03;;;9.70;99.90;;;;;;5071288;28;38168;-77
2022/04/12 00:52:18;;;;;;;10.40;6.53;;;9.70;99.90;;;;;;5084511;28;37805;-77
2022/04/12 00:54:44;;;;;;;12.23;6.30;;;9.70;99.90;;;;;;5072116;28;37810;-77
2022/04/12 00:57:12;;;;;;;8.47;6.50;;;9.60;99.90;;;;;;5068527;28;38808;-77
2022/04/12 00:59:38;;;;;;;10.13;6.20;;;9.60;99.90;;;;;;5066416;28;37326;-76
2022/04/12 01:02:05;;;;;;;11.30;6.10;;;9.60;99.90;;;;;;5060010;28;38642;-76
2022/04/12 01:04:32;;;;;;;7.03;5.93;;;9.60;99.90;;;;;;5078636;28;38639;-76
2022/04/12 01:07:00;;;;;;;7.97;6.10;;;9.60;99.90;;;;;;5062881;28;38442;-76
2022/04/12 01:09:27;;;;;;;8.37;6.10;;;9.60;99.90;;;;;;5061434;28;38528;-76
2022/04/12 01:11:54;;;;;;;8.67;6.03;;;9.50;99.90;;;;;;5075596;28;37621;-76
2022/04/12 01:14:22;;;;;;;9.90;5.97;;;9.50;99.90;;;;;;5059012;27;38518;-76
2022/04/12 01:16:49;;;;;;;11.63;6.60;;;9.50;99.90;;;;;;5053169;28;37285;-77
2022/04/12 01:19:15;;;;;;;9.93;5.97;;;9.50;99.90;;;;;;5061346;28;38092;-77
2022/04/12 01:22:02;;;;;;;6.57;5.47;;;9.40;99.90;;;;;;5067487;28;39349;-76
2022/04/12 01:24:29;;;;;;;8.57;5.80;;;9.40;99.90;;;;;;5050378;28;47372;-76
2022/04/12 01:26:56;;;;;;;9.47;5.90;;;9.40;99.90;;;;;;5053521;28;37013;-77
2022/04/12 01:29:23;;;;;;;9.73;6.07;;;9.30;99.90;;;;;;5053142;28;36705;-76
2022/04/12 01:31:49;;;;;;;9.23;6.30;;;9.30;99.90;;;;;;5052227;28;38915;-76
2022/04/12 01:34:15;;;;;;;8.77;6.40;;;9.30;99.90;;;;;;5057208;28;39072;-76
2022/04/12 01:36:41;;;;;;;9.10;6.03;;;9.30;99.90;;;;;;5062596;28;38209;-76
2022/04/12 01:39:08;;;;;;;11.93;6.30;;;9.20;99.90;;;;;;5066718;28;37263;-76
2022/04/12 01:41:34;;;;;;;7.70;6.17;;;9.20;99.90;;;;;;5078091;28;38245;-76
2022/04/12 01:44:00;;;;;;;9.93;5.77;;;9.20;99.90;;;;;;5060148;28;38638;-77
2022/04/12 01:46:27;;;;;;;9.93;6.67;;;9.10;99.90;;;;;;5043067;28;40005;-76
2022/04/12 01:48:53;;;;;;;9.03;6.17;;;9.10;99.90;;;;;;5062705;28;38192;-77
2022/04/12 01:51:19;;;;;;;7.17;5.47;;;9.10;99.90;;;;;;5075520;28;37924;-76
2022/04/12 01:53:45;;;;;;;12.73;6.63;;;9.10;99.90;;;;;;5061967;28;38365;-77
2022/04/12 01:56:11;;;;;;;8.40;6.30;;;9.00;99.90;;;;;;5063827;28;38044;-77
2022/04/12 01:58:38;;;;;;;7.50;5.83;;;9.00;99.90;;;;;;5063227;28;36066;-77
2022/04/12 02:01:04;;;;;;;13.40;6.30;;;8.90;99.90;;;;;;5060630;28;38989;-77
2022/04/12 02:03:31;;;;;;;9.00;6.50;;;8.80;99.90;;;;;;5053984;28;38708;-76
2022/04/12 02:05:57;;;;;;;10.20;6.23;;;8.80;99.90;;;;;;5059162;28;38617;-77
2022/04/12 02:08:23;;;;;;;13.53;6.30;;;8.80;99.90;;;;;;5058752;28;36209;-77
2022/04/12 02:10:49;;;;;;;10.07;6.57;;;8.70;99.90;;;;;;5059457;28;37442;-76
2022/04/12 02:13:18;;;;;;;7.40;5.67;;;8.70;99.90;;;;;;5065221;28;38882;-76
2022/04/12 02:15:44;;;;;;;9.20;6.43;;;8.70;99.90;;;;;;5076465;28;37650;-77
2022/04/12 02:18:10;;;;;;;9.73;5.87;;;8.60;99.90;;;;;;5059956;28;36975;-76
2022/04/12 02:20:36;;;;;;;8.90;5.83;;;8.60;99.90;;;;;;5061433;28;38490;-77
2022/04/12 02:23:02;;;;;;;10.20;6.17;;;8.60;99.90;;;;;;5062805;28;38906;-76
2022/04/12 02:25:28;;;;;;;11.17;6.20;;;8.60;99.90;;;;;;5062077;28;37807;-77
2022/04/12 02:27:54;;;;;;;8.83;6.07;;;8.60;99.90;;;;;;5062930;28;37090;-76
2022/04/12 02:30:21;;;;;;;8.63;6.00;;;8.60;99.90;;;;;;5062060;28;38929;-76
2022/04/12 02:32:47;;;;;;;9.10;7.00;;;8.60;99.90;;;;;;5063215;27;38880;-77
2022/04/12 02:35:13;;;;;;;9.10;5.90;;;8.60;99.90;;;;;;5061459;28;39078;-76
2022/04/12 02:37:39;;;;;;;11.13;6.27;;;8.60;99.90;;;;;;5063608;28;37960;-76
2022/04/12 02:40:06;;;;;;;8.70;5.63;;;8.60;99.90;;;;;;5063784;28;39817;-77
2022/04/12 02:42:32;;;;;;;8.73;5.90;;;8.60;99.90;;;;;;5070725;28;38833;-76
2022/04/12 02:44:58;;;;;;;8.17;5.43;;;8.60;99.90;;;;;;5066593;28;39287;-77
2022/04/12 02:47:25;;;;;;;13.97;6.23;;;8.70;99.90;;;;;;5058154;28;38310;-77
2022/04/12 02:49:52;;;;;;;9.10;5.77;;;8.70;99.90;;;;;;5062040;28;39607;-76
2022/04/12 02:52:18;;;;;;;11.07;5.60;;;8.60;99.90;;;;;;5074110;28;39176;-77
2022/04/12 02:54:45;;;;;;;8.53;5.77;;;8.70;99.90;;;;;;5060703;28;38946;-76
2022/04/12 02:57:11;;;;;;;8.17;5.63;;;8.70;99.90;;;;;;5065302;28;37030;-76
2022/04/12 02:59:37;;;;;;;10.37;5.50;;;8.70;99.90;;;;;;5081508;28;40582;-77
2022/04/12 03:02:03;;;;;;;8.97;5.57;;;8.70;99.90;;;;;;5058154;28;38217;-77
2022/04/12 03:04:29;;;;;;;10.27;6.40;;;8.60;99.90;;;;;;5076061;28;39346;-77
2022/04/12 03:06:55;;;;;;;8.93;5.90;;;8.60;99.90;;;;;;5059755;28;35606;-77
2022/04/12 03:09:22;;;;;;;8.80;5.60;;;8.60;99.90;;;;;;5072533;27;40475;-77
2022/04/12 03:11:48;;;;;;;7.50;5.03;;;8.60;99.90;;;;;;5065385;28;38290;-76
2022/04/12 03:14:14;;;;;;;9.73;5.97;;;8.50;99.90;;;;;;5046525;28;38242;-79
2022/04/12 03:16:42;;;;;;;8.00;5.77;;;8.50;99.90;;;;;;5062123;28;36921;-79
2022/04/12 03:19:08;;;;;;;7.00;5.17;;;8.50;99.90;;;;;;5063177;28;40035;-77
2022/04/12 03:21:34;;;;;;;8.50;5.30;;;8.50;99.90;;;;;;5058739;28;37877;-77
2022/04/12 03:24:00;;;;;;;8.23;5.60;;;8.50;99.90;;;;;;5068335;28;38191;-76
2022/04/12 03:26:27;;;;;;;8.17;5.50;;;8.60;99.90;;;;;;5054279;28;38803;-77
2022/04/12 03:28:53;;;;;;;8.90;4.93;;;8.60;99.90;;;;;;5059639;28;39596;-77
2022/04/12 03:31:19;;;;;;;7.70;5.37;;;8.70;99.90;;;;;;5065367;28;39187;-76
2022/04/12 03:33:46;;;;;;;7.83;5.20;;;8.70;99.90;;;;;;5059563;28;37882;-77
2022/04/12 03:36:12;;;;;;;7.10;5.33;;;8.80;99.90;;;;;;5059134;28;37234;-76
2022/04/12 03:38:47;;;;;;;8.33;5.10;;;8.80;99.90;;;;;;5071478;28;39528;-77
2022/04/12 03:41:27;;;;;;;7.50;5.37;;;8.80;99.90;;;;;;5055902;28;38500;-77
2022/04/12 03:43:53;;;;;;;9.50;5.80;;;8.80;99.90;;;;;;5056952;28;39289;-77
2022/04/12 03:46:19;;;;;;;9.03;6.00;;;8.70;99.90;;;;;;5061046;28;37489;-77
2022/04/12 03:48:45;;;;;;;8.07;4.73;;;8.70;99.90;;;;;;5055086;28;39698;-76
2022/04/12 03:51:12;;;;;;;7.53;5.53;;;8.60;99.90;;;;;;5056075;28;38625;-77
2022/04/12 03:53:38;;;;;;;7.90;5.67;;;8.60;99.90;;;;;;5069732;28;37322;-76
2022/04/12 03:56:07;;;;;;;9.60;6.23;;;8.50;99.90;;;;;;5071516;28;39041;-76
2022/04/12 03:58:35;;;;;;;6.47;5.03;;;8.40;99.90;;;;;;5055513;28;40322;-76
2022/04/12 04:01:02;;;;;;;6.87;5.70;;;8.30;99.90;;;;;;5043568;28;37338;-77
2022/04/12 04:03:28;;;;;;;6.53;5.40;;;8.20;99.90;;;;;;5034961;28;47237;-77
2022/04/12 04:05:55;;;;;;;13.23;6.17;;;8.10;99.90;;;;;;5051748;28;37460;-79
2022/04/12 04:08:21;;;;;;;10.00;5.60;;;8.10;99.90;;;;;;5055343;28;39104;-76
2022/04/12 04:10:48;;;;;;;8.27;5.50;;;8.10;99.90;;;;;;5075735;28;38539;-78
2022/04/12 04:13:15;;;;;;;8.40;5.53;;;8.10;99.90;;;;;;5076149;28;38740;-76
2022/04/12 04:15:41;;;;;;;8.47;5.60;;;8.10;99.90;;;;;;5055480;28;38180;-78
2022/04/12 04:18:08;;;;;;;7.87;5.57;;;8.20;99.90;;;;;;5071497;28;38990;-79
2022/04/12 04:20:34;;;;;;;6.63;5.57;;;8.20;99.90;;;;;;5058168;28;38746;-78
2022/04/12 04:23:01;;;;;;;7.60;5.17;;;8.20;99.90;;;;;;5055992;28;38616;-78
2022/04/12 04:25:27;;;;;;;9.03;5.27;;;8.20;99.90;;;;;;5042394;28;46949;-78
2022/04/12 04:27:53;;;;;;;9.07;5.20;;;8.20;99.90;;;;;;5059201;28;39288;-78
2022/04/12 04:30:19;;;;;;;9.20;5.30;;;8.20;99.90;;;;;;5067440;28;38675;-78
2022/04/12 04:32:46;;;;;;;8.03;5.47;;;8.10;99.90;;;;;;5063218;28;39193;-78
2022/04/12 04:35:12;;;;;;;10.73;5.73;;;8.20;99.90;;;;;;5060941;28;36542;-78
2022/04/12 04:37:57;;;;;;;9.73;5.90;;;8.20;99.90;;;;;;5068662;28;39910;-78
2022/04/12 04:40:24;;;;;;;9.33;6.13;;;8.20;99.90;;;;;;5064489;28;20188;-78
2022/04/12 04:42:53;;;;;;;8.30;5.37;;;8.20;99.90;;;;;;5042744;28;39016;-78
2022/04/12 04:45:19;;;;;;;8.50;5.43;;;8.10;99.90;;;;;;5064955;28;37326;-80
2022/04/12 04:47:56;;;;;;;8.63;5.77;;;8.10;99.90;;;;;;5059571;28;39091;-78
2022/04/12 04:50:25;;;;;;;9.10;5.57;;;8.00;99.90;;;;;;5061722;28;38939;-78
2022/04/12 04:52:52;;;;;;;7.80;5.67;;;8.00;99.90;;;;;;5061556;27;37762;-78
2022/04/12 04:55:19;;;;;;;7.30;5.10;;;8.00;99.90;;;;;;5063658;28;38801;-78
2022/04/12 04:57:46;;;;;;;13.07;5.73;;;8.00;99.90;;;;;;5068253;28;39568;-79
2022/04/12 05:00:17;;;;;;;9.77;5.73;;;8.00;99.90;;;;;;5068485;28;38497;-81
2022/04/12 05:02:51;;;;;;;8.77;5.40;;;8.00;99.90;;;;;;5078221;28;38156;-77
2022/04/12 05:05:18;;;;;;;11.80;5.90;;;7.90;99.90;;;;;;5042887;28;37964;-78
2022/04/12 05:07:46;;;;;;;8.13;5.43;;;8.00;99.90;;;;;;5063378;28;42057;-79
2022/04/12 05:10:18;;;;;;;8.37;6.13;;;7.90;99.90;;;;;;5074249;28;37120;-78
2022/04/12 05:12:45;;;;;;;7.22;5.65;;;7.90;99.90;;;;;;5051126;28;38847;-79
2022/04/12 05:15:11;;;;;;;8.57;5.90;;;7.90;99.90;;;;;;5046401;28;37357;-78
2022/04/12 05:17:38;;;;;;;8.77;6.00;;;7.80;99.90;;;;;;5079670;28;39156;-78
2022/04/12 05:20:09;;;;;;;7.80;5.40;;;7.80;99.90;;;;;;5066202;28;39222;-78
2022/04/12 05:22:35;;;;;;;9.50;5.63;;;7.70;99.90;;;;;;5081396;28;39731;-78
2022/04/12 05:25:02;;;;;;;8.20;6.03;;;7.70;99.90;;;;;;5071377;28;37030;-78
2022/04/12 05:27:32;;;;;;;9.50;5.40;;;7.60;99.90;;;;;;5061591;28;39002;-78
2022/04/12 05:29:59;;;;;;;10.63;5.47;;;7.70;99.90;;;;;;5065815;28;37083;-78
2022/04/12 05:32:25;;;;;;;7.33;5.53;;;7.70;99.90;;;;;;5061799;27;38818;-78
2022/04/12 05:34:52;;;;;;;9.63;5.47;;;7.80;99.90;;;;;;5057185;28;37891;-78
2022/04/12 05:37:19;;;;;;;11.07;5.50;;;7.90;99.90;;;;;;5053551;28;39605;-78
2022/04/12 05:39:45;;;;;;;7.77;5.47;;;7.90;99.90;;;;;;5042449;28;38251;-78
2022/04/12 05:42:11;;;;;;;10.17;6.30;;;7.90;99.90;;;;;;5060126;28;38501;-78
2022/04/12 05:44:40;;;;;;;7.50;5.57;;;8.00;99.90;;;;;;5065586;28;39519;-79
2022/04/12 05:47:10;;;;;;;10.00;5.90;;;8.10;99.90;;;;;;5066610;28;38928;-78
2022/04/12 05:49:36;;;;;;;9.67;5.93;;;8.20;99.90;;;;;;5069442;28;39006;-81
2022/04/12 05:52:02;;;;;;;10.67;5.90;;;8.20;99.90;;;;;;5066005;27;38262;-80
2022/04/12 05:54:28;;;;;;;9.67;5.63;;;8.30;99.90;;;;;;5064745;28;38276;-80
2022/04/12 05:56:54;;;;;;;8.97;5.70;;;8.50;99.90;;;;;;5069018;28;38682;-82
2022/04/12 05:59:22;;;;;;;7.27;4.67;;;8.60;99.90;;;;;;5068733;28;39173;-78
2022/04/12 06:01:49;;;;;;;9.17;5.70;;;8.70;99.90;;;;;;5068395;28;37920;-79
2022/04/12 06:04:16;;;;;;;11.00;5.87;;;8.90;99.90;;;;;;5067554;28;38664;-79
2022/04/12 06:06:42;;;;;;;9.50;5.13;;;9.00;99.90;;;;;;5071457;28;38890;-78
2022/04/12 06:09:08;;;;;;;10.70;5.13;;;9.10;99.90;;;;;;5047951;28;39364;-79
2022/04/12 06:11:35;;;;;;;10.57;5.50;;;9.10;99.90;;;;;;5076730;28;38292;-79
2022/04/12 06:14:01;;;;;;;8.60;5.67;;;9.20;99.90;;;;;;5069753;28;38680;-79
2022/04/12 06:16:27;;;;;;;9.10;5.07;;;9.30;99.90;;;;;;5070034;28;47614;-79
2022/04/12 06:18:53;;;;;;;10.17;5.10;;;9.40;99.90;;;;;;5073900;28;38440;-79
2022/04/12 06:21:19;;;;;;;8.00;5.47;;;9.40;99.90;;;;;;5069690;28;38814;-79
2022/04/12 06:23:45;;;;;;;11.23;5.73;;;9.50;99.90;;;;;;5073382;28;37081;-79
2022/04/12 06:26:11;;;;;;;10.43;5.30;;;9.60;99.90;;;;;;5048185;28;39973;-79
2022/04/12 06:28:38;;;;;;;8.83;6.27;;;9.60;99.90;;;;;;5066833;28;37370;-80
2022/04/12 06:31:04;;;;;;;9.13;5.53;;;9.70;99.90;;;;;;5068009;28;38393;-79
2022/04/12 06:33:30;;;;;;;9.30;5.30;;;9.80;99.90;;;;;;5057812;28;37280;-79
2022/04/12 06:35:56;;;;;;;8.03;5.67;;;9.90;99.90;;;;;;5069879;28;37743;-79
2022/04/12 06:38:22;;;;;;;8.93;5.25;;;10.00;99.90;;;;;;5066175;28;39118;-80
2022/04/12 06:40:49;;;;;;;9.77;5.18;;;10.10;99.90;;;;;;5069625;28;38963;-79
2022/04/12 06:43:16;;;;;;;9.68;6.13;;;10.20;99.90;;;;;;5073067;28;37652;-79
2022/04/12 06:45:42;;;;;;;10.77;5.45;;;10.30;99.90;;;;;;5066972;28;39530;-79
2022/04/12 06:48:09;;;;;;;10.13;5.70;;;10.40;99.90;;;;;;5089467;28;39279;-79
2022/04/12 06:50:35;;;;;;;10.10;5.55;;;10.50;99.90;;;;;;5076360;28;37482;-79
2022/04/12 06:53:03;;;;;;;10.18;5.30;;;10.60;99.90;;;;;;5070539;28;37011;-79
2022/04/12 06:55:30;;;;;;;9.93;5.70;;;10.70;99.90;;;;;;5068311;28;47252;-79
2022/04/12 06:57:56;;;;;;;9.38;6.28;;;10.80;99.90;;;;;;5070201;28;39922;-79
2022/04/12 07:00:22;;;;;;;9.27;5.78;;;10.90;99.90;;;;;;5071992;28;38673;-81
2022/04/12 07:02:49;;;;;;;8.10;5.25;;;11.00;99.90;;;;;;5069738;28;36921;-79
2022/04/12 07:05:15;;;;;;;8.93;5.72;;;11.10;99.90;;;;;;5071797;28;38908;-80
2022/04/12 07:07:42;;;;;;;8.38;5.63;;;11.30;99.90;;;;;;5068687;28;38666;-80
2022/04/12 07:10:11;;;;;;;10.57;5.72;;;11.50;99.90;;;;;;5070359;28;38525;-80
2022/04/12 07:12:39;;;;;;;10.38;5.68;;;11.50;99.90;;;;;;5073575;28;38131;-81
2022/04/12 07:15:06;;;;;;;9.35;5.55;;;11.60;99.90;;;;;;5064778;28;38752;-79
2022/04/12 07:17:32;;;;;;;10.68;6.05;;;11.70;99.90;;;;;;5068778;27;39648;-80
2022/04/12 07:19:58;;;;;;;11.88;5.90;;;11.80;99.90;;;;;;5069204;28;38105;-80
2022/04/12 07:22:24;;;;;;;9.93;6.30;;;11.90;99.90;;;;;;5068933;28;37276;-81
2022/04/12 07:24:50;;;;;;;9.35;5.30;;;12.00;99.90;;;;;;5071165;28;40350;-80
2022/04/12 07:27:17;;;;;;;10.27;5.38;;;12.10;99.90;;;;;;5068645;27;38872;-80
2022/04/12 07:29:43;;;;;;;12.60;5.78;;;12.20;99.90;;;;;;5070334;28;38550;-80
2022/04/12 07:32:09;;;;;;;7.53;5.20;;;12.40;99.90;;;;;;5071395;28;37315;-80
2022/04/12 07:34:35;;;;;;;9.13;6.07;;;12.50;99.90;;;;;;5058520;28;39810;-80
2022/04/12 07:37:01;;;;;;;7.85;4.90;;;12.60;99.90;;;;;;5085066;28;38678;-79
2022/04/12 07:39:27;;;;;;;9.48;5.60;;;12.60;99.90;;;;;;5071875;28;38082;-81
2022/04/12 07:41:53;;;;;;;11.10;5.25;;;12.70;99.90;;;;;;5069651;28;37092;-80
2022/04/12 07:44:21;;;;;;;9.25;5.80;;;12.80;99.90;;;;;;5070681;28;39984;-81
2022/04/12 07:46:47;;;;;;;6.95;5.38;;;13.00;99.90;;;;;;5075782;28;39061;-79
2022/04/12 07:49:14;;;;;;;7.18;5.70;;;13.10;99.90;;;;;;5056994;28;38020;-78
2022/04/12 07:51:41;;;;;;;9.10;5.47;;;13.40;99.90;;;;;;5085518;28;39010;-79
2022/04/12 07:54:08;;;;;;;8.70;5.47;;;13.50;99.90;;;;;;5068505;28;40012;-80
2022/04/12 07:56:34;;;;;;;6.05;4.70;;;13.50;99.90;;;;;;5057835;28;38610;-80
2022/04/12 07:59:01;;;;;;;7.35;4.93;;;13.40;99.90;;;;;;5055975;28;38769;-80
2022/04/12 08:01:27;;;;;;;11.02;4.57;;;13.50;99.90;;;;;;5070349;28;38623;-82
2022/04/12 08:03:53;;;;;;;8.95;5.20;;;13.70;99.90;;;;;;5072502;28;38863;-81
2022/04/12 08:06:19;;;;;;;11.00;6.15;;;13.80;99.90;;;;;;5085213;28;38820;-80
2022/04/12 08:08:45;;;;;;;10.63;6.30;;;13.80;99.90;;;;;;5072042;28;38255;-81
2022/04/12 08:11:12;;;;;;;10.15;5.55;;;13.80;99.90;;;;;;5089514;28;38143;-81
2022/04/12 08:13:39;;;;;;;8.88;5.85;;;13.90;99.90;;;;;;5073930;28;39758;-82
2022/04/12 08:16:05;;;;;;;7.88;6.18;;;14.20;99.90;;;;;;5072491;28;38210;-81
2022/04/12 08:18:32;;;;;;;7.57;5.47;;;14.40;99.90;;;;;;5058255;28;38035;-79
2022/04/12 08:20:58;;;;;;;8.13;5.18;;;14.70;99.90;;;;;;5062082;28;36176;-80
2022/04/12 08:23:25;;;;;;;7.68;5.97;;;14.80;99.90;;;;;;5074725;27;38759;-78
2022/04/12 08:25:52;;;;;;;14.38;6.10;;;14.80;99.90;;;;;;5063336;28;39292;-79
2022/04/12 08:28:18;;;;;;;10.98;5.97;;;15.10;99.90;;;;;;5078905;28;37765;-78
2022/04/12 08:30:44;;;;;;;8.13;5.55;;;15.20;99.90;;;;;;5071509;28;36120;-79
2022/04/12 08:33:11;;;;;;;10.60;5.68;;;15.30;99.90;;;;;;5062577;28;39511;-80
2022/04/12 08:35:37;;;;;;;7.45;5.35;;;15.30;99.90;;;;;;5068502;28;40527;-79
2022/04/12 08:38:03;;;;;;;8.90;5.28;;;15.40;99.90;;;;;;5077426;28;37868;-79
2022/04/12 08:40:30;;;;;;;5.68;4.68;;;15.50;99.90;;;;;;5064270;28;36943;-79
2022/04/12 08:42:58;;;;;;;8.07;5.30;;;15.90;99.90;;;;;;5062576;28;40698;-79
2022/04/12 08:45:28;;;;;;;5.88;4.80;;;16.20;99.90;;;;;;5064460;28;38545;-81
2022/04/12 08:47:55;;;;;;;6.88;4.88;;;16.30;99.90;;;;;;5063074;28;38689;-79
2022/04/12 08:50:21;;;;;;;10.23;5.32;;;16.30;99.90;;;;;;5072522;28;37173;-81
2022/04/12 08:52:48;;;;;;;8.57;5.47;;;16.40;99.90;;;;;;5057283;28;39502;-80
2022/04/12 08:55:14;;;;;;;7.15;4.88;;;16.50;99.90;;;;;;5066627;28;39556;-78
2022/04/12 08:57:40;;;;;;;10.70;5.25;;;16.40;99.90;;;;;;5066101;28;39036;-77
2022/04/12 09:00:07;;;;;;;7.68;5.07;;;16.60;99.90;;;;;;5062370;28;36334;-78
2022/04/12 09:02:34;;;;;;;8.93;5.03;;;16.90;99.90;;;;;;5058998;28;39945;-77
2022/04/12 09:05:00;;;;;;;7.15;5.22;;;17.20;99.90;;;;;;5051766;28;38333;-79
2022/04/12 09:07:27;;;;;;;5.38;4.88;;;17.30;99.90;;;;;;5037115;28;37707;-77
2022/04/12 09:10:06;;;;;;;6.40;5.03;;;17.10;99.90;;;;;;5041176;28;38363;-78
2022/04/12 09:12:37;;;;;;;7.93;5.10;;;16.90;99.90;;;;;;5049364;28;47082;-78
2022/04/12 09:15:10;;;;;;;8.48;5.78;;;17.00;99.90;;;;;;5046019;28;37962;-76
2022/04/12 09:17:39;;;;;;;6.78;5.55;;;17.10;99.90;;;;;;5045974;28;37989;-80
2022/04/12 09:20:11;;;;;;;7.43;5.50;;;16.90;99.90;;;;;;5042373;28;36964;-77
2022/04/12 09:22:38;;;;;;;11.05;6.00;;;16.90;99.90;;;;;;5046504;28;39629;-78
2022/04/12 09:25:05;;;;;;;9.32;5.72;;;16.80;99.90;;;;;;5035952;28;38734;-76
2022/04/12 09:27:34;;;;;;;8.90;6.75;;;17.00;99.90;;;;;;5044414;28;38970;-77
2022/04/12 09:30:01;;;;;;;9.32;6.55;;;17.50;99.90;;;;;;5059729;28;35983;-77
2022/04/12 09:32:29;;;;;;;8.82;5.75;;;17.70;99.90;;;;;;5080975;27;47192;-79
2022/04/12 09:34:56;;;;;;;7.30;5.38;;;17.80;99.90;;;;;;5065460;28;38664;-77
2022/04/12 09:37:33;;;;;;;10.77;5.82;;;18.00;99.90;;;;;;5043074;28;39360;-78
2022/04/12 09:39:59;;;;;;;7.88;5.68;;;18.00;99.90;;;;;;5055063;28;38401;-77
2022/04/12 09:42:55;;;;;;;7.90;6.32;;;18.20;99.90;;;;;;5068472;28;39462;-77
2022/04/12 09:45:25;;;;;;;7.05;6.20;;;18.50;99.90;;;;;;5068711;28;38337;-78
2022/04/12 09:47:57;;;;;;;8.38;6.28;;;18.60;99.90;;;;;;5072046;28;39090;-80
2022/04/12 09:50:26;;;;;;;8.57;6.18;;;18.80;99.90;;;;;;5066352;28;37906;-79
2022/04/12 09:52:53;;;;;;;10.68;6.38;;;19.10;99.90;;;;;;5069021;28;38404;-79
2022/04/12 09:55:41;;;;;;;7.30;5.72;;;19.10;99.90;;;;;;5073182;28;38334;-79
2022/04/12 09:58:11;;;;;;;7.07;5.22;;;19.00;99.90;;;;;;5067659;27;38719;-78
2022/04/12 10:00:41;;;;;;;6.68;5.72;;;19.20;99.90;;;;;;5047145;28;38183;-78
2022/04/12 10:03:13;;;;;;;11.25;5.47;;;19.20;99.90;;;;;;5067723;28;38895;-79
2022/04/12 10:05:39;;;;;;;6.73;5.20;;;19.10;99.90;;;;;;5086693;28;39254;-79
2022/04/12 10:08:12;;;;;;;7.25;5.85;;;19.10;99.90;;;;;;5062281;28;38077;-77
2022/04/12 10:10:43;;;;;;;9.57;6.05;;;18.90;99.90;;;;;;5060388;28;38110;-79
2022/04/12 10:13:10;;;;;;;8.80;5.13;;;18.80;99.90;;;;;;5082265;27;39273;-77
2022/04/12 10:15:37;;;;;;;7.85;5.80;;;18.90;99.90;;;;;;5087661;28;40236;-79
2022/04/12 10:18:04;;;;;;;7.75;5.57;;;18.80;99.90;;;;;;5083807;28;38429;-77
2022/04/12 10:20:31;;;;;;;8.05;4.60;;;19.10;99.90;;;;;;5070044;28;37063;-81
2022/04/12 10:22:59;;;;;;;6.22;4.53;;;18.90;99.90;;;;;;5068531;28;40306;-78
2022/04/12 10:25:26;;;;;;;10.18;4.80;;;18.90;99.90;;;;;;5081794;28;38259;-78
2022/04/12 10:28:03;;;;;;;6.35;5.40;;;19.10;99.90;;;;;;5063237;28;39001;-79
2022/04/12 10:30:31;;;;;;;7.85;5.70;;;19.00;99.90;;;;;;5068555;28;48065;-81
2022/04/12 10:32:58;;;;;;;7.90;5.13;;;19.40;99.90;;;;;;5060502;28;37383;-80
2022/04/12 10:35:24;;;;;;;10.00;5.45;;;19.10;99.90;;;;;;5069873;28;39920;-79
2022/04/12 10:37:53;;;;;;;8.15;5.22;;;19.00;99.90;;;;;;5071721;28;39914;-78
2022/04/12 10:40:20;;;;;;;5.57;4.57;;;19.40;99.90;;;;;;5064606;28;37621;-78
2022/04/12 10:42:49;;;;;;;10.15;5.18;;;19.90;99.90;;;;;;5055746;28;39681;-79
2022/04/12 10:45:26;;;;;;;8.40;5.72;;;19.70;99.90;;;;;;5063283;28;39021;-78
2022/04/12 10:47:56;;;;;;;8.68;5.63;;;19.30;99.90;;;;;;5069134;28;37870;-78
2022/04/12 10:50:22;;;;;;;8.48;5.30;;;19.40;99.90;;;;;;5064930;28;38450;-79
2022/04/12 10:52:49;;;;;;;8.27;5.13;;;19.40;99.90;;;;;;5058910;28;38969;-79
2022/04/12 10:55:19;;;;;;;8.32;6.10;;;19.60;99.90;;;;;;5072498;28;39154;-79
2022/04/12 10:57:46;;;;;;;9.98;5.45;;;19.70;99.90;;;;;;5065976;28;38790;-79
2022/04/12 11:00:20;;;;;;;7.60;4.82;;;19.80;99.90;;;;;;5068818;28;37194;-79
2022/04/12 11:02:57;;;;;;;10.73;5.57;;;20.00;99.90;;;;;;5065629;28;39730;-78
2022/04/12 11:05:51;;;;;;;8.93;4.93;;;20.30;99.90;;;;;;5080180;28;38674;-81
2022/04/12 11:08:17;;;;;;;5.18;4.45;;;19.90;99.90;;;;;;5061915;28;37144;-78
2022/04/12 11:10:52;;;;;;;9.68;5.03;;;19.70;99.90;;;;;;5049568;28;37903;-78
2022/04/12 11:13:22;;;;;;;11.00;5.05;;;19.90;99.90;;;;;;5070382;28;39599;-80
2022/04/12 11:15:56;;;;;;;8.40;4.95;;;20.10;99.90;;;;;;5059255;28;39439;-78
2022/04/12 11:18:22;;;;;;;6.55;4.47;;;20.40;99.90;;;;;;5064200;28;38787;-79
2022/04/12 11:21:03;;;;;;;9.45;5.00;;;20.70;99.90;;;;;;5080520;28;38711;-79
2022/04/12 11:23:52;;;;;;;9.13;4.38;;;20.90;99.90;;;;;;5069183;28;47199;-78
2022/04/12 11:26:40;;;;;;;10.55;4.10;;;20.80;99.90;;;;;;5063915;28;38609;-80
2022/04/12 11:29:11;;;;;;;9.60;4.28;;;20.80;99.90;;;;;;5075183;28;37806;-80
2022/04/12 11:31:42;;;;;;;7.67;3.83;;;20.70;99.90;;;;;;5068894;28;38361;-81
2022/04/12 11:34:09;;;;;;;7.45;4.20;;;20.50;99.90;;;;;;5063010;28;39720;-80
2022/04/12 11:36:37;;;;;;;5.20;4.50;;;20.50;99.90;;;;;;5062555;28;39442;-79
2022/04/12 11:39:04;;;;;;;6.82;4.20;;;20.60;99.90;;;;;;5062163;28;36910;-77
2022/04/12 11:41:30;;;;;;;8.48;4.20;;;20.60;99.90;;;;;;5063528;28;36766;-78
2022/04/12 11:44:01;;;;;;;7.90;4.18;;;20.80;99.90;;;;;;5062148;28;37791;-82
2022/04/12 11:46:32;;;;;;;7.47;4.18;;;21.10;99.90;;;;;;5056489;28;40767;-79
2022/04/12 11:49:10;;;;;;;7.00;3.65;;;20.70;99.90;;;;;;5062179;28;37057;-79
2022/04/12 11:51:38;;;;;;;8.07;3.72;;;20.90;99.90;;;;;;5044377;28;47129;-78
2022/04/12 11:54:41;;;;;;;6.95;3.50;;;20.90;99.90;;;;;;5065973;28;39747;-79
2022/04/12 11:57:24;;;;;;;7.05;3.95;;;21.00;99.90;;;;;;5040411;28;38832;-82
2022/04/12 11:59:51;;;;;;;;;;;20.70;99.90;;;;;;5047721;28;37526;-79
2022/04/12 12:02:22;;;;;;;5.13;3.30;;;21.20;99.90;;;;;;5064192;28;38379;-82
2022/04/12 12:04:59;;;;;;;5.57;3.70;;;21.00;99.90;;;;;;5062479;28;37849;-81
2022/04/12 12:07:26;;;;;;;5.85;3.58;;;20.80;99.90;;;;;;5066387;27;38288;-79
2022/04/12 12:10:00;;;;;;;8.80;3.28;;;20.80;99.90;;;;;;5063364;28;39111;-79
2022/04/12 12:12:38;;;;;;;5.93;3.55;;;21.20;99.90;;;;;;5082605;27;46563;-79
2022/04/12 12:15:31;;;;;;;6.07;3.40;;;21.50;99.90;;;;;;5065716;28;39903;-80
2022/04/12 12:17:58;;;;;;;;;;;21.50;99.90;;;;;;5064297;28;38915;-80
2022/04/12 12:20:26;;;;;;;7.45;3.15;;;21.50;99.90;;;;;;5068169;28;38950;-84
2022/04/12 12:22:56;;;;;;;7.00;2.92;;;21.50;99.90;;;;;;5077343;27;36711;-84
2022/04/12 12:25:54;;;;;;;9.35;3.47;;;20.90;99.90;;;;;;5064790;28;38765;-80
2022/04/12 12:28:22;;;;;;;7.38;3.00;;;21.00;99.90;;;;;;5066140;28;39106;-82
2022/04/12 12:30:56;;;;;;;7.38;3.15;;;21.50;99.90;;;;;;5064340;28;38022;-80
2022/04/12 12:33:24;;;;;;;6.28;3.67;;;21.70;99.90;;;;;;5059858;28;37581;-81
2022/04/12 12:35:51;;;;;;;6.15;3.17;;;21.50;99.90;;;;;;5058632;28;39210;-80
2022/04/12 12:38:21;;;;;;;7.10;3.42;;;21.40;99.90;;;;;;5058785;28;39100;-82
2022/04/12 12:40:53;;;;;;;7.93;3.67;;;21.50;99.90;;;;;;5063930;28;38275;-81
2022/04/12 12:43:19;;;;;;;7.88;4.35;;;21.70;99.90;;;;;;5072157;28;38118;-79
2022/04/12 12:45:46;;;;;;;9.50;3.70;;;22.00;99.90;;;;;;5066733;28;38056;-79
2022/04/12 12:48:15;;;;;;;6.95;3.83;;;22.20;99.90;;;;;;5060782;28;37459;-77
2022/04/12 12:50:42;;;;;;;8.27;3.78;;;22.70;99.90;;;;;;5064589;28;37113;-79
2022/04/12 12:53:13;;;;;;;4.90;3.88;;;22.90;99.90;;;;;;5069457;28;38183;-78
2022/04/12 12:55:43;;;;;;;6.90;3.83;;;22.70;99.90;;;;;;5065604;28;38320;-78
2022/04/12 12:58:14;;;;;;;5.32;4.07;;;23.10;99.90;;;;;;5065997;27;38058;-78